Home > Products > Valid Products > TAF

000
FTUS45 KFGZ 281100 RRA
TAFINW
TAF
KINW 281144Z 2812/0112 16007KT P6SM -SHRA SCT050 BKN070
      TEMPO 2812/2815 5SM -SHRA OVC030
     FM281600 18014G22KT P6SM SCT030 BKN050
     FM281800 22024G36KT P6SM SCT060 BKN080
     FM010130 21015G22KT P6SM SCT050 BKN070=



000
FTUS45 KFGZ 281100 RRA
TAFPGA
TAF
KPGA 281144Z 2812/0112 VRB05KT 2SM -SN BR SCT004 BKN012
      TEMPO 2812/2815 1SM -SN BR OVC004
     FM281500 VRB05KT 4SM -SHSN BR BKN015
     FM281900 29007KT P6SM VCSH SCT018 OVC030=



000
FTUS45 KFGZ 281100 RRA
TAFINW
TAF
KINW 281144Z 2812/0112 16007KT P6SM -SHRA SCT050 BKN070
      TEMPO 2812/2815 5SM -SHRA OVC030
     FM281600 18014G22KT P6SM SCT030 BKN050
     FM281800 22024G36KT P6SM SCT060 BKN080
     FM010130 21015G22KT P6SM SCT050 BKN070=



000
FTUS45 KFGZ 281100 RRA
TAFPGA
TAF
KPGA 281144Z 2812/0112 VRB05KT 2SM -SN BR SCT004 BKN012
      TEMPO 2812/2815 1SM -SN BR OVC004
     FM281500 VRB05KT 4SM -SHSN BR BKN015
     FM281900 29007KT P6SM VCSH SCT018 OVC030=



000
FTUS45 KFGZ 281100 RRA
TAFFLG
TAF
KFLG 281144Z 2812/0112 21012G25KT P6SM VCSH SCT008 OVC018
      TEMPO 2812/2815 2SM -SHSN BR BKN008
     FM281500 22012G25KT 3SM -SHSN BR SCT012 OVC020
     FM281830 22020G35KT 3SM -SHSN BR SCT012 BKN025
      TEMPO 2819/2823 1SM -SHSNRA BR OVC008
     FM010200 23012G23KT 4SM -SHSN BR SCT018 OVC030=



000
FTUS45 KFGZ 281100 RRA
TAFFLG
TAF
KFLG 281144Z 2812/0112 21012G25KT P6SM VCSH SCT008 OVC018
      TEMPO 2812/2815 2SM -SHSN BR BKN008
     FM281500 22012G25KT 3SM -SHSN BR SCT012 OVC020
     FM281830 22020G35KT 3SM -SHSN BR SCT012 BKN025
      TEMPO 2819/2823 1SM -SHSNRA BR OVC008
     FM010200 23012G23KT 4SM -SHSN BR SCT018 OVC030=



000
FTUS45 KFGZ 281000 AAA
TAFINW
TAF AMD
KINW 281049Z 2811/0106 16007KT P6SM -SHRA SCT050 BKN070
      TEMPO 2811/2815 5SM -SHRA OVC035
     FM281600 18010G22KT P6SM SCT030 BKN050
     FM281730 22022G36KT P6SM SCT060 BKN080
     FM010130 23017KT P6SM SCT050 BKN070=



000
FTUS45 KFGZ 281000 AAA
TAFINW
TAF AMD
KINW 281049Z 2811/0106 16007KT P6SM -SHRA SCT050 BKN070
      TEMPO 2811/2815 5SM -SHRA OVC035
     FM281600 18010G22KT P6SM SCT030 BKN050
     FM281730 22022G36KT P6SM SCT060 BKN080
     FM010130 23017KT P6SM SCT050 BKN070=



000
FTUS45 KFGZ 280900 AAA
TAFFLG
TAF AMD
KFLG 280922Z 2809/0106 22012G25KT P6SM -SHSN OVC018
      TEMPO 2809/2813 2SM -SHSN BR BKN010
     FM281300 23012G25KT 2SM -SHSN BR SCT012 OVC020
      TEMPO 2813/2817 3/4SM -SHSN BR BKN012
     FM281830 22012G26KT 3SM -SHSN BR SCT012 OVC020
     FM010200 23011KT 4SM -SHSN BR SCT018 OVC030=



000
FTUS45 KFGZ 280500
TAFINW
TAF
KINW 280532Z 2806/0106 13007KT P6SM SCT080 BKN100
     FM281730 22022G36KT P6SM SCT060 BKN080
     FM010130 23017KT P6SM SCT050 BKN070=



000
FTUS45 KFGZ 280500
TAFFLG
TAF
KFLG 280532Z 2806/0106 25007KT P6SM BKN040 BKN060 OVC080
      TEMPO 2806/2807 3SM -SHSN BR SCT020 BKN030
     FM280700 24009KT 3SM -SHSN BR SCT020 OVC030
      TEMPO 2809/2813 1SM -SHSN BR BKN018
     FM281300 23011KT 2SM -SHSN BR SCT012 OVC020
      TEMPO 2813/2817 3/4SM -SHSN BR BKN012
     FM281830 22012G26KT 3SM -SHSN BR SCT012 OVC020
     FM010200 23011KT 4SM -SHSN BR SCT018 OVC030=



000
FTUS45 KFGZ 280500
TAFPGA
TAF
KPGA 280532Z 2806/0106 VRB03KT P6SM BKN020 OVC025
      TEMPO 2807/2809 VRB10G20KT 4SM -SHRA BR BKN018
     FM280900 VRB05KT 5SM -SHRA SCT012 OVC018
     FM281900 29007KT P6SM VCSH SCT018 OVC030 PROB30 2819/2823 5SM
      -SHRA BR BKN018=



000
FTUS45 KFGZ 280300 AAB
TAFFLG
TAF AMD
KFLG 280304Z 2803/2824 24009KT P6SM SCT035 OVC050
      TEMPO 2803/2807 6SM -SHRASN BR SCT020 BKN035
     FM280700 24011KT 4SM -SHSN BR SCT020 OVC030
     FM281100 23008KT 2SM -SHSN BR SCT015 OVC020
     FM281700 22015G30KT 2SM -SHSN BR SCT015 OVC020
     FM281900 22020G35KT 2SM -SHSN BR SCT015 OVC025=



000
FTUS45 KFGZ 280300 AAB
TAFFLG
TAF AMD
KFLG 280304Z 2803/2824 24009KT P6SM SCT035 OVC050
      TEMPO 2803/2807 6SM -SHRASN BR SCT020 BKN035
     FM280700 24011KT 4SM -SHSN BR SCT020 OVC030
     FM281100 23008KT 2SM -SHSN BR SCT015 OVC020
     FM281700 22015G30KT 2SM -SHSN BR SCT015 OVC020
     FM281900 22020G35KT 2SM -SHSN BR SCT015 OVC025=



000
FTUS45 KFGZ 280100 AAA
TAFPGA
TAF AMD
KPGA 280124Z 2801/2824 05006KT P6SM SCT045 OVC050
      TEMPO 2801/2804 P6SM -SHRA BKN045
     FM280400 VRB05KT 5SM -SHRA BR SCT015 OVC040
     FM281900 31008KT 5SM -SHRA SCT015 OVC035=



000
FTUS45 KFGZ 280100 AAA
TAFPGA
TAF AMD
KPGA 280124Z 2801/2824 05006KT P6SM SCT045 OVC050
      TEMPO 2801/2804 P6SM -SHRA BKN045
     FM280400 VRB05KT 5SM -SHRA BR SCT015 OVC040
     FM281900 31008KT 5SM -SHRA SCT015 OVC035=



000
FTUS45 KFGZ 280100 AAA
TAFFLG
TAF AMD
KFLG 280122Z 2801/2824 24015G25KT P6SM SCT035 OVC045
      TEMPO 2801/2804 6SM -SHRA BR SCT020 BKN035
     FM280400 24011KT 4SM -SHSN BR SCT020 OVC030
     FM280800 23008KT 2SM -SHSN BR SCT015 OVC020
     FM281700 22015G30KT 2SM -SHSN BR SCT015 OVC020
     FM281900 22020G35KT 2SM -SHSN BR SCT015 OVC025=



000
FTUS45 KFGZ 280100 AAA
TAFFLG
TAF AMD
KFLG 280122Z 2801/2824 24015G25KT P6SM SCT035 OVC045
      TEMPO 2801/2804 6SM -SHRA BR SCT020 BKN035
     FM280400 24011KT 4SM -SHSN BR SCT020 OVC030
     FM280800 23008KT 2SM -SHSN BR SCT015 OVC020
     FM281700 22015G30KT 2SM -SHSN BR SCT015 OVC020
     FM281900 22020G35KT 2SM -SHSN BR SCT015 OVC025=



000
FTUS45 KFGZ 272300
TAFINW
TAF
KINW 272320Z 2800/2824 VRB06KT P6SM OVC090
     FM280200 22010KT P6SM VCSH SCT080 BKN090
     FM281000 18012KT P6SM VCSH SCT070 OVC080
     FM281700 22024G37KT P6SM VCSH SCT060 OVC070=



000
FTUS45 KFGZ 272300
TAFFLG
TAF
KFLG 272320Z 2800/2824 24015G25KT P6SM SCT035 OVC045
      TEMPO 2800/2804 4SM -SHSN BR SCT020 BKN035
     FM280400 24011KT 4SM -SHSN BR SCT020 OVC030
     FM280800 23008KT 2SM -SHSN BR SCT015 OVC020
     FM281700 22015G30KT 2SM -SHSN BR SCT015 OVC020
     FM281900 22020G35KT 2SM -SHSN BR SCT015 OVC025=



000
FTUS45 KFGZ 272300
TAFPGA
TAF
KPGA 272320Z 2800/2824 05006KT P6SM SCT015 OVC050
      TEMPO 2800/2804 P6SM -SHRA BKN015 OVC030
     FM280400 VRB05KT 5SM -SHRA BR SCT015 OVC040
     FM281900 31008KT 5SM -SHRA SCT015 OVC035=



000
FTUS45 KFGZ 272100 AAA
TAFPGA
TAF AMD
KPGA 272149Z 2722/2818 02006KT P6SM SCT030 OVC050
      TEMPO 2722/2802 P6SM -SHRA BKN030
     FM280200 VRB05KT 5SM -SHRASN BR OVC040=



000
FTUS45 KFGZ 272100 AAA
TAFPGA
TAF AMD
KPGA 272149Z 2722/2818 02006KT P6SM SCT030 OVC050
      TEMPO 2722/2802 P6SM -SHRA BKN030
     FM280200 VRB05KT 5SM -SHRASN BR OVC040=



000
FTUS45 KFGZ 272100 AAA
TAFINW
TAF AMD
KINW 272147Z 2722/2818 VRB06KT P6SM OVC090
     FM272300 23012G22KT P6SM SCT070 OVC090
     FM280200 22010KT P6SM VCSH SCT080 BKN090=



000
FTUS45 KFGZ 272100 AAA
TAFINW
TAF AMD
KINW 272147Z 2722/2818 VRB06KT P6SM OVC090
     FM272300 23012G22KT P6SM SCT070 OVC090
     FM280200 22010KT P6SM VCSH SCT080 BKN090=



000
FTUS45 KFGZ 272100 AAA
TAFFLG
TAF AMD
KFLG 272130Z 2722/2818 24012G20KT P6SM SCT030 BKN050
      TEMPO 2722/2802 2SM -SHSN BR SCT020 BKN030
     FM280200 24011KT 4SM -SHSN BR SCT020 OVC030=



000
FTUS45 KFGZ 271700 RRA
TAFPGA
TAF
KPGA 271743Z 2718/2818 02006KT P6SM SCT026 OVC035
      TEMPO 2719/2723 P6SM -SHRA BKN025
     FM272300 VRB05KT 5SM -SHRASN BR OVC040=



000
FTUS45 KFGZ 271700 RRA
TAFFLG
TAF
KFLG 271743Z 2718/2818 23008KT P6SM SCT050 OVC080
      TEMPO 2718/2722 4SM -SHSN BKN040
     FM272200 24012G23KT P6SM SCT030 BKN050
      TEMPO 2722/2802 2SM -SHSN BR SCT020 BKN030
     FM280200 24011KT 4SM -SHSN BR SCT020 OVC030=



000
FTUS45 KFGZ 271700 RRA
TAFINW
TAF
KINW 271743Z 2718/2818 VRB06KT P6SM BKN090
     FM272000 23012G22KT P6SM SCT070 OVC090
     FM280200 22010KT P6SM VCSH SCT080 BKN090=



000
FTUS45 KFGZ 271700 RRA
TAFPGA
TAF
KPGA 271743Z 2718/2818 02006KT P6SM SCT026 OVC035
      TEMPO 2719/2723 P6SM -SHRA BKN025
     FM272300 VRB05KT 5SM -SHRASN BR OVC040=



000
FTUS45 KFGZ 271700 RRA
TAFFLG
TAF
KFLG 271743Z 2718/2818 23008KT P6SM SCT050 OVC080
      TEMPO 2718/2722 4SM -SHSN BKN040
     FM272200 24012G23KT P6SM SCT030 BKN050
      TEMPO 2722/2802 2SM -SHSN BR SCT020 BKN030
     FM280200 24011KT 4SM -SHSN BR SCT020 OVC030=



000
FTUS45 KFGZ 271700 RRA
TAFINW
TAF
KINW 271743Z 2718/2818 VRB06KT P6SM BKN090
     FM272000 23012G22KT P6SM SCT070 OVC090
     FM280200 22010KT P6SM VCSH SCT080 BKN090=



000
FTUS45 KFGZ 271100
TAFINW
TAF
KINW 271138Z 2712/2812 VRB06KT P6SM SCT100
     FM271930 23012G22KT P6SM SCT100 BKN120
     FM280200 25014KT P6SM VCSH SCT080 BKN100=



000
FTUS45 KFGZ 271100
TAFFLG
TAF
KFLG 271138Z 2712/2812 VRB05KT P6SM SCT080
     FM271500 23008KT P6SM SCT050 OVC080
     FM271800 24012G23KT P6SM SCT030 BKN050 PROB30 2721/2724 4SM
      -SHSN BR SCT020 BKN030
     FM280000 24011KT 4SM -SHSN BR SCT020 OVC030=



000
FTUS45 KFGZ 271100
TAFPGA
TAF
KPGA 271138Z 2712/2812 VRB03KT P6SM BKN120
     FM271800 02008KT P6SM SCT060 OVC080
      TEMPO 2719/2723 P6SM -SHRA BKN050
     FM272300 VRB05KT 5SM -SHRASN BR OVC040=



000
FTUS45 KFGZ 270500
TAFPGA
TAF
KPGA 270531Z 2706/2806 VRB03KT P6SM BKN120
     FM271800 02008KT P6SM SCT060 OVC080 PROB30 2718/2723 P6SM -SHRA
      BKN050
     FM272300 34011KT P6SM VCSH SCT040 OVC050
     FM280200 VRB05KT 5SM -SHRASN BR OVC040=



000
FTUS45 KFGZ 270500
TAFFLG
TAF
KFLG 270531Z 2706/2806 VRB05KT P6SM SCT080
     FM271500 23008KT P6SM VCSH SCT050 OVC080
      TEMPO 2716/2719 23011G22KT 3SM -SHSN BR SCT020 BKN030
     FM271930 24012G23KT P6SM SCT030 BKN050
     FM280400 24012KT 5SM -SHSN BR SCT020 OVC030=



000
FTUS45 KFGZ 262300
TAFFLG
TAF
KFLG 262330Z 2700/2724 25010G18KT 5SM -SHSN BKN030 OVC045
     FM270030 24008KT P6SM FEW050 BKN080
     FM270130 VRB05KT P6SM SCT080
     FM271700 23008G15KT P6SM SCT050 OVC080=



000
FTUS45 KFGZ 262300
TAFPGA
TAF
KPGA 262330Z 2700/2724 35007KT P6SM SCT080 BKN100
     FM270100 VRB03KT P6SM SCT080 SCT100
     FM271900 02008KT P6SM SCT080 OVC100=



000
FTUS45 KFGZ 262300
TAFINW
TAF
KINW 262330Z 2700/2724 26015G24KT P6SM FEW080 BKN100
     FM270200 25008KT P6SM SCT100
     FM270900 12007KT P6SM SCT120
     FM271930 23012G22KT P6SM SCT100 BKN120=



000
FTUS45 KFGZ 261700 RRA
TAFFLG
TAF
KFLG 261746Z 2618/2718 24008KT P6SM FEW080 BKN200
     FM261900 23013G21KT P6SM BKN080
     FM270100 VRB04KT P6SM BKN080
     FM271700 23009KT P6SM BKN080=



000
FTUS45 KFGZ 261700 RRA
TAFFLG
TAF
KFLG 261746Z 2618/2718 24008KT P6SM FEW080 BKN200
     FM261900 23013G21KT P6SM BKN080
     FM270100 VRB04KT P6SM BKN080
     FM271700 23009KT P6SM BKN080=



000
FTUS45 KFGZ 261700 RRA
TAFINW
TAF
KINW 261746Z 2618/2718 12008KT P6SM BKN200
     FM262100 26010G17KT P6SM BKN110
     FM270200 25008KT P6SM BKN110
     FM270400 VRB06KT P6SM BKN110
     FM271700 23008KT P6SM BKN110=



000
FTUS45 KFGZ 261700 RRA
TAFPGA
TAF
KPGA 261746Z 2618/2718 VRB04KT P6SM SCT080 OVC100
     FM262000 33007KT P6SM SCT080 OVC100
     FM270100 VRB04KT P6SM SCT080 BKN100=



000
FTUS45 KFGZ 261100
TAFFLG
TAF
KFLG 261131Z 2612/2712 VRB03KT P6SM BKN130
      TEMPO 2616/2618 22011KT
     FM261800 23013G21KT P6SM BKN080
     FM270100 VRB04KT P6SM BKN060=



000
FTUS45 KFGZ 261100
TAFINW
TAF
KINW 261131Z 2612/2712 VRB05KT P6SM BKN150
     FM262100 26010G17KT P6SM BKN090
     FM270200 VRB06KT P6SM BKN070=



000
FTUS45 KFGZ 261100
TAFPGA
TAF
KPGA 261131Z 2612/2712 VRB04KT P6SM BKN140
     FM262000 33007KT P6SM BKN060
     FM270100 VRB04KT P6SM SCT060=



000
FTUS45 KFGZ 261100
TAFINW
TAF
KINW 261131Z 2612/2712 VRB05KT P6SM BKN150
     FM262100 26010G17KT P6SM BKN090
     FM270200 VRB06KT P6SM BKN070=



000
FTUS45 KFGZ 261100
TAFFLG
TAF
KFLG 261131Z 2612/2712 VRB03KT P6SM BKN130
      TEMPO 2616/2618 22011KT
     FM261800 23013G21KT P6SM BKN080
     FM270100 VRB04KT P6SM BKN060=



000
FTUS45 KFGZ 261100
TAFPGA
TAF
KPGA 261131Z 2612/2712 VRB04KT P6SM BKN140
     FM262000 33007KT P6SM BKN060
     FM270100 VRB04KT P6SM SCT060=



000
FTUS45 KFGZ 260500
TAFFLG
TAF
KFLG 260525Z 2606/2706 VRB03KT P6SM BKN150
     FM261800 24010G15KT P6SM BKN080
     FM270100 24005KT P6SM BKN060 OVC110=



000
FTUS45 KFGZ 260500
TAFPGA
TAF
KPGA 260525Z 2606/2706 VRB04KT P6SM BKN180
     FM262000 33005KT P6SM BKN060
     FM270100 VRB04KT P6SM SCT060 SCT150=



000
FTUS45 KFGZ 260500
TAFINW
TAF
KINW 260525Z 2606/2706 VRB06KT P6SM BKN180
     FM262100 28010G17KT P6SM BKN090
     FM270100 27011KT P6SM BKN060 OVC100=



000
FTUS45 KFGZ 260500
TAFPGA
TAF
KPGA 260525Z 2606/2706 VRB04KT P6SM BKN180
     FM262000 33005KT P6SM BKN060
     FM270100 VRB04KT P6SM SCT060 SCT150=



000
FTUS45 KFGZ 252300
TAFINW
TAF
KINW 252338Z 2600/2624 30011G19KT P6SM SCT250
     FM260200 VRB06KT P6SM BKN200
     FM262100 28010KT P6SM BKN100
      AMD NOT SKED=



000
FTUS45 KFGZ 252300
TAFPGA
TAF
KPGA 252338Z 2600/2624 33009G14KT P6SM SCT250
     FM260300 VRB04KT P6SM BKN200
      AMD NOT SKED=



000
FTUS45 KFGZ 252300
TAFFLG
TAF
KFLG 252338Z 2600/2624 30010G16KT P6SM FEW250
     FM260130 VRB03KT P6SM BKN150
     FM261800 23010G15KT P6SM BKN070=



000
FTUS45 KFGZ 252100 AAA
TAFPGA
TAF AMD
KPGA 252129Z 2521/2618 33009G14KT P6SM SCT250
     FM260300 VRB04KT P6SM BKN200
      AMD NOT SKED=



000
FTUS45 KFGZ 252100 AAA
TAFPGA
TAF AMD
KPGA 252129Z 2521/2618 33009G14KT P6SM SCT250
     FM260300 VRB04KT P6SM BKN200
      AMD NOT SKED=



000
FTUS45 KFGZ 252100 AAA
TAFINW
TAF AMD
KINW 252128Z 2521/2618 30011G19KT P6SM SCT250
     FM260200 VRB06KT P6SM BKN200
      AMD NOT SKED=



000
FTUS45 KFGZ 252000 AAA
TAFFLG
TAF AMD
KFLG 252051Z 2521/2618 VRB05KT P6SM FEW250
     FM252200 30010G16KT P6SM FEW250
     FM260130 VRB03KT P6SM BKN150=



000
FTUS45 KFGZ 252000 AAA
TAFFLG
TAF AMD
KFLG 252051Z 2521/2618 VRB05KT P6SM FEW250
     FM252200 30010G16KT P6SM FEW250
     FM260130 VRB03KT P6SM BKN150=



000
FTUS45 KFGZ 251700
TAFFLG
TAF
KFLG 251737Z 2518/2618 30010G16KT P6SM FEW250
     FM260130 VRB03KT P6SM BKN150=



000
FTUS45 KFGZ 251700
TAFPGA
TAF
KPGA 251737Z 2518/2618 VRB04KT P6SM SCT250
     FM252000 33009G14KT P6SM SCT250
     FM260300 VRB04KT P6SM BKN200=



000
FTUS45 KFGZ 251700
TAFINW
TAF
KINW 251737Z 2518/2618 VRB06KT P6SM SCT250
     FM251900 30011G19KT P6SM SCT250
     FM260200 VRB06KT P6SM BKN200=



000
FTUS45 KFGZ 251700
TAFINW
TAF
KINW 251737Z 2518/2618 VRB06KT P6SM SCT250
     FM251900 30011G19KT P6SM SCT250
     FM260200 VRB06KT P6SM BKN200=



000
FTUS45 KFGZ 251700
TAFFLG
TAF
KFLG 251737Z 2518/2618 30010G16KT P6SM FEW250
     FM260130 VRB03KT P6SM BKN150=



000
FTUS45 KFGZ 251700
TAFPGA
TAF
KPGA 251737Z 2518/2618 VRB04KT P6SM SCT250
     FM252000 33009G14KT P6SM SCT250
     FM260300 VRB04KT P6SM BKN200=



    US Dept of Commerce
    National Oceanic and Atmospheric Administration
    National Weather Service
    1325 East West Highway
    Silver Spring, MD 20910
    Page Author: NWS Internet Services Team
Disclaimer
Information Quality
Credits
Glossary
Privacy Policy
Freedom of Information Act (FOIA)
About Us
Career Opportunities